createdAt,value
2023-01-03T00:00:51.419Z,10.90
2023-01-03T00:05:02.311Z,10.90
2023-01-03T00:09:08.631Z,10.90
2023-01-03T00:13:45.135Z,10.90
2023-01-03T00:17:48.143Z,10.80
2023-01-03T00:21:52.664Z,10.80
2023-01-03T00:26:31.304Z,10.70
2023-01-03T00:30:34.465Z,10.70
2023-01-03T00:34:37.824Z,10.70
2023-01-03T00:38:42.238Z,10.70
2023-01-03T00:43:02.597Z,10.70
2023-01-03T00:47:05.738Z,10.70
2023-01-03T00:51:13.110Z,10.60
2023-01-03T00:55:17.622Z,10.60
2023-01-03T00:59:22.416Z,10.50
2023-01-03T01:03:28.636Z,10.50
2023-01-03T01:07:32.212Z,10.50
2023-01-03T01:11:39.399Z,10.40
2023-01-03T01:16:40.235Z,10.30
2023-01-03T01:20:43.255Z,10.20
2023-01-03T01:24:48.604Z,10.10
2023-01-03T01:29:23.874Z,10.10
2023-01-03T01:33:29.054Z,10.00
2023-01-03T01:37:32.812Z,10.00
2023-01-03T01:41:54.551Z,10.00
2023-01-03T01:45:59.971Z,9.90
2023-01-03T01:50:16.374Z,9.90
2023-01-03T01:54:20.707Z,9.80
2023-01-03T01:58:27.442Z,9.80
2023-01-03T02:02:32.248Z,9.70
2023-01-03T02:07:06.694Z,9.70
2023-01-03T02:11:25.063Z,9.60
2023-01-03T02:15:51.590Z,9.50
2023-01-03T02:20:11.798Z,9.50
2023-01-03T02:24:43.671Z,9.50
2023-01-03T02:29:30.762Z,9.40
2023-01-03T02:33:54.981Z,9.40
2023-01-03T02:38:01.365Z,9.40
2023-01-03T02:42:29.084Z,9.40
2023-01-03T02:46:39.170Z,9.40
2023-01-03T02:50:47.750Z,9.40
2023-01-03T02:55:23.385Z,9.30
2023-01-03T02:59:32.622Z,9.30
2023-01-03T03:03:38.960Z,9.30
2023-01-03T03:07:43.855Z,9.30
2023-01-03T03:12:08.422Z,9.30
2023-01-03T03:16:42.391Z,9.30
2023-01-03T03:21:05.918Z,9.30
2023-01-03T03:25:14.557Z,9.30
2023-01-03T03:29:20.049Z,9.30
2023-01-03T03:33:27.204Z,9.30
2023-01-03T03:37:35.679Z,9.30
2023-01-03T03:42:02.522Z,9.20
2023-01-03T03:46:13.924Z,9.10
2023-01-03T03:50:23.855Z,9.10
2023-01-03T03:54:29.593Z,9.10
2023-01-03T03:58:50.621Z,9.00
2023-01-03T04:02:56.600Z,8.90
2023-01-03T04:07:03.554Z,8.70
2023-01-03T04:11:07.239Z,8.50
2023-01-03T04:15:12.352Z,8.40
2023-01-03T04:19:15.447Z,8.30
2023-01-03T04:23:20.231Z,8.20
2023-01-03T04:27:25.490Z,8.10
2023-01-03T04:31:32.581Z,8.10
2023-01-03T04:35:36.066Z,8.00
2023-01-03T04:39:39.412Z,7.90
2023-01-03T04:44:07.711Z,7.80
2023-01-03T04:48:12.399Z,7.70
2023-01-03T04:52:16.141Z,7.70
2023-01-03T04:56:31.126Z,7.70
2023-01-03T05:00:34.335Z,7.60
2023-01-03T05:04:38.938Z,7.50
2023-01-03T05:08:43.533Z,7.40
2023-01-03T05:13:00.104Z,7.40
2023-01-03T05:17:04.190Z,7.30
2023-01-03T05:21:33.410Z,7.20
2023-01-03T05:25:51.706Z,7.20
2023-01-03T05:29:57.082Z,7.10
2023-01-03T05:34:00.620Z,7.10
2023-01-03T05:38:07.097Z,7.10
2023-01-03T05:42:11.834Z,7.20
2023-01-03T05:46:14.990Z,7.20
2023-01-03T05:50:18.295Z,7.30
2023-01-03T05:54:24.992Z,7.30
2023-01-03T05:58:32.637Z,7.30
2023-01-03T06:02:35.762Z,7.40
2023-01-03T06:07:15.111Z,7.40
2023-01-03T06:11:19.935Z,7.40
2023-01-03T06:15:23.109Z,7.40
2023-01-03T06:19:31.601Z,7.40
2023-01-03T06:24:02.181Z,7.30
2023-01-03T06:28:06.699Z,7.20
2023-01-03T06:32:10.374Z,7.10
2023-01-03T06:36:47.679Z,6.90
2023-01-03T06:40:51.520Z,6.80
2023-01-03T06:45:15.822Z,6.60
2023-01-03T06:49:40.262Z,6.30
2023-01-03T06:53:44.680Z,6.10
2023-01-03T06:57:47.883Z,6.10
2023-01-03T07:01:56.434Z,6.00
2023-01-03T07:06:02.503Z,6.00
2023-01-03T07:10:06.129Z,5.90
2023-01-03T07:14:12.268Z,5.90
2023-01-03T07:18:21.037Z,5.80
2023-01-03T07:22:24.177Z,5.70
2023-01-03T07:26:27.224Z,5.60
2023-01-03T07:31:04.836Z,5.60
2023-01-03T07:35:10.557Z,5.50
2023-01-03T07:39:15.078Z,5.40
2023-01-03T07:43:45.593Z,5.50
2023-01-03T07:47:48.679Z,5.60
2023-01-03T07:51:53.096Z,5.70
2023-01-03T07:56:10.778Z,5.70
2023-01-03T08:00:30.971Z,5.70
2023-01-03T08:04:34.169Z,5.70
2023-01-03T08:08:42.894Z,5.70
2023-01-03T08:13:03.915Z,5.80
2023-01-03T08:17:21.789Z,5.90
2023-01-03T08:21:26.026Z,5.90
2023-01-03T08:25:30.532Z,5.90
2023-01-03T08:29:33.862Z,5.90
2023-01-03T08:34:16.831Z,6.00
2023-01-03T08:38:28.322Z,6.20
2023-01-03T08:42:34.523Z,6.40
2023-01-03T08:46:42.311Z,6.60
2023-01-03T08:50:48.452Z,6.80
2023-01-03T08:54:54.673Z,6.90
2023-01-03T08:59:32.222Z,7.00
2023-01-03T09:03:35.466Z,7.00
2023-01-03T09:08:14.240Z,7.00
2023-01-03T09:12:19.485Z,7.10
2023-01-03T09:16:57.385Z,7.20
2023-01-03T09:21:00.534Z,7.30
2023-01-03T09:25:41.707Z,7.30
2023-01-03T09:29:44.821Z,7.40
2023-01-03T09:33:51.654Z,7.50
2023-01-03T09:38:21.906Z,7.80
2023-01-03T09:42:46.205Z,7.90
2023-01-03T09:47:26.662Z,8.10
2023-01-03T09:51:54.296Z,8.10
2023-01-03T09:56:18.650Z,8.30
2023-01-03T10:00:44.648Z,8.50
2023-01-03T10:05:12.515Z,8.60
2023-01-03T10:09:28.916Z,8.80
2023-01-03T10:13:42.906Z,8.90
2023-01-03T10:17:59.968Z,9.10
2023-01-03T10:22:25.596Z,9.20
2023-01-03T10:26:34.649Z,9.40
2023-01-03T10:30:58.527Z,9.50
2023-01-03T10:35:19.233Z,9.60
2023-01-03T10:39:31.556Z,9.70
2023-01-03T10:43:41.839Z,9.90
2023-01-03T10:48:01.101Z,10.00
2023-01-03T10:52:27.216Z,10.00
2023-01-03T10:56:36.327Z,10.10
2023-01-03T11:00:40.977Z,10.30
2023-01-03T11:05:07.892Z,10.40
2023-01-03T11:09:12.401Z,10.60
2023-01-03T11:13:25.430Z,10.70
2023-01-03T11:17:59.774Z,10.80
2023-01-03T11:22:08.377Z,10.80
2023-01-03T11:26:22.326Z,10.90
2023-01-03T11:30:33.111Z,10.80
2023-01-03T11:35:21.444Z,10.70
2023-01-03T11:39:57.259Z,10.70
2023-01-03T11:44:36.879Z,10.70
2023-01-03T11:49:05.174Z,10.70
2023-01-03T11:53:22.485Z,10.70
2023-01-03T11:57:35.257Z,10.60
2023-01-03T12:02:26.825Z,10.40
2023-01-03T12:06:36.375Z,10.40
2023-01-03T12:10:49.279Z,10.50
2023-01-03T12:14:56.828Z,10.50
2023-01-03T12:19:09.956Z,10.50
2023-01-03T12:23:24.509Z,10.60
2023-01-03T12:27:36.426Z,10.60
2023-01-03T12:31:49.828Z,10.70
2023-01-03T12:35:58.713Z,11.00
2023-01-03T12:40:04.075Z,11.10
2023-01-03T12:44:43.549Z,11.20
2023-01-03T12:49:06.980Z,11.30
2023-01-03T12:53:19.176Z,11.40
2023-01-03T12:58:00.696Z,11.50
2023-01-03T13:02:23.106Z,11.40
2023-01-03T13:06:39.382Z,11.30
2023-01-03T13:10:47.590Z,11.20
2023-01-03T13:14:58.597Z,11.10
2023-01-03T13:19:34.853Z,11.00
2023-01-03T13:24:05.571Z,10.90
2023-01-03T13:28:31.861Z,10.90
2023-01-03T13:32:58.511Z,11.00
2023-01-03T13:37:15.260Z,11.30
2023-01-03T13:41:35.383Z,11.60
2023-01-03T13:46:01.709Z,11.80
2023-01-03T13:50:05.154Z,12.00
2023-01-03T13:54:30.066Z,11.90
2023-01-03T13:58:41.470Z,11.80
2023-01-03T14:03:27.281Z,11.80
2023-01-03T14:07:51.910Z,11.60
2023-01-03T14:12:11.270Z,11.50
2023-01-03T14:16:22.505Z,11.50
2023-01-03T14:20:36.201Z,11.50
2023-01-03T14:25:07.790Z,11.40
2023-01-03T14:29:18.807Z,11.40
2023-01-03T14:33:24.559Z,11.20
2023-01-03T14:37:31.280Z,11.10
2023-01-03T14:41:37.596Z,11.00
2023-01-03T14:46:13.287Z,10.80
2023-01-03T14:50:21.414Z,10.70
2023-01-03T14:54:25.879Z,10.60
2023-01-03T14:58:34.853Z,10.40
2023-01-03T15:02:40.585Z,10.20
2023-01-03T15:07:13.971Z,9.70
2023-01-03T15:11:25.136Z,9.40
2023-01-03T15:15:31.557Z,9.10
2023-01-03T15:19:36.045Z,8.80
2023-01-03T15:23:43.431Z,8.50
2023-01-03T15:27:50.403Z,8.10
2023-01-03T15:32:00.837Z,7.70
2023-01-03T15:36:06.889Z,7.30
2023-01-03T15:40:41.184Z,6.90
2023-01-03T15:44:49.521Z,6.60
2023-01-03T15:49:24.368Z,6.20
2023-01-03T15:53:35.442Z,6.00
2023-01-03T15:58:05.438Z,5.70
2023-01-03T16:02:25.102Z,5.50
2023-01-03T16:06:35.897Z,5.40
2023-01-03T16:11:05.304Z,5.30
2023-01-03T16:15:43.656Z,5.20
2023-01-03T16:19:51.690Z,5.10
2023-01-03T16:23:57.201Z,4.90
2023-01-03T16:28:00.462Z,4.80
2023-01-03T16:32:40.317Z,4.60
2023-01-03T16:36:47.280Z,4.50
2023-01-03T16:40:53.321Z,4.40
2023-01-03T16:44:57.532Z,4.30
2023-01-03T16:49:00.891Z,4.20
2023-01-03T16:53:10.059Z,4.10
2023-01-03T16:57:53.657Z,4.00
2023-01-03T17:01:59.580Z,3.90
2023-01-03T17:06:04.937Z,3.80
2023-01-03T17:10:39.057Z,3.80
2023-01-03T17:14:47.450Z,3.70
2023-01-03T17:18:50.945Z,3.60
2023-01-03T17:23:27.545Z,3.50
2023-01-03T17:27:33.785Z,3.50
2023-01-03T17:31:38.266Z,3.40
2023-01-03T17:35:48.512Z,3.30
2023-01-03T17:40:20.661Z,3.20
2023-01-03T17:44:23.757Z,3.20
2023-01-03T17:48:51.241Z,3.10
2023-01-03T17:52:58.742Z,3.10
2023-01-03T17:57:31.637Z,3.00
2023-01-03T18:01:45.818Z,3.00
2023-01-03T18:05:50.438Z,2.90
2023-01-03T18:09:56.639Z,2.80
2023-01-03T18:13:59.689Z,2.80
2023-01-03T18:18:05.391Z,2.80
2023-01-03T18:22:41.164Z,2.80
2023-01-03T18:26:48.839Z,2.80
2023-01-03T18:31:20.333Z,2.80
2023-01-03T18:35:55.974Z,2.70
2023-01-03T18:40:32.513Z,2.60
2023-01-03T18:45:11.966Z,2.50
2023-01-03T18:49:45.155Z,2.40
2023-01-03T18:54:25.347Z,2.40
2023-01-03T18:59:11.618Z,2.30
2023-01-03T19:03:38.209Z,2.30
2023-01-03T19:07:44.799Z,2.30
2023-01-03T19:12:22.071Z,2.30
2023-01-03T19:16:57.649Z,2.20
2023-01-03T19:21:34.750Z,2.20
2023-01-03T19:25:42.592Z,2.30
2023-01-03T19:30:20.529Z,2.30
2023-01-03T19:34:57.955Z,2.30
2023-01-03T19:39:37.599Z,2.30
2023-01-03T19:44:19.244Z,2.20
2023-01-03T19:48:47.620Z,2.20
2023-01-03T19:52:53.475Z,2.30
2023-01-03T19:57:02.068Z,2.30
2023-01-03T20:01:07.003Z,2.30
2023-01-03T20:05:23.899Z,2.30
2023-01-03T20:09:28.962Z,2.20
2023-01-03T20:14:04.786Z,2.10
2023-01-03T20:18:24.491Z,2.00
2023-01-03T20:27:07.595Z,2.00
2023-01-03T20:31:44.318Z,1.90
2023-01-03T20:36:23.648Z,1.80
2023-01-03T20:40:30.165Z,1.90
2023-01-03T20:44:35.842Z,1.90
2023-01-03T20:48:38.892Z,2.00
2023-01-03T20:52:41.932Z,2.00
2023-01-03T20:56:48.152Z,2.00
2023-01-03T21:01:21.664Z,2.00
2023-01-03T21:06:19.683Z,2.00
2023-01-03T21:10:24.879Z,2.10
2023-01-03T21:14:29.330Z,2.20
2023-01-03T21:19:04.864Z,2.20
2023-01-03T21:23:08.454Z,2.30
2023-01-03T21:27:13.572Z,2.30
2023-01-03T21:31:50.394Z,2.20
2023-01-03T21:36:31.146Z,2.10
2023-01-03T21:40:34.890Z,2.10
2023-01-03T21:44:39.628Z,2.10
2023-01-03T21:48:44.781Z,2.10
2023-01-03T21:53:22.003Z,1.90
2023-01-03T21:57:25.077Z,1.80
2023-01-03T22:01:51.096Z,1.80
2023-01-03T22:06:51.172Z,1.80
2023-01-03T22:10:57.542Z,1.70
2023-01-03T22:15:00.596Z,1.70
2023-01-03T22:19:03.650Z,1.60
2023-01-03T22:23:44.985Z,1.50
2023-01-03T22:27:57.467Z,1.40
2023-01-03T22:32:00.582Z,1.40
2023-01-03T22:36:37.504Z,1.30
2023-01-03T22:40:40.626Z,1.40
2023-01-03T22:44:45.323Z,1.40
2023-01-03T22:49:18.975Z,1.30
2023-01-03T22:53:24.156Z,1.40
2023-01-03T22:57:27.470Z,1.40
2023-01-03T23:01:34.072Z,1.40
2023-01-03T23:05:41.312Z,1.50
2023-01-03T23:10:12.401Z,1.60
2023-01-03T23:14:17.953Z,1.80
2023-01-03T23:18:23.754Z,1.90
2023-01-03T23:22:27.008Z,2.00
2023-01-03T23:27:07.497Z,2.20
2023-01-03T23:31:13.708Z,2.30
2023-01-03T23:35:18.558Z,2.40
2023-01-03T23:39:21.729Z,2.30
2023-01-03T23:43:25.527Z,2.40
2023-01-03T23:47:28.614Z,2.50
2023-01-03T23:51:44.552Z,2.50
2023-01-03T23:55:52.658Z,2.40
